Time;durP1;ratioP1;P1;durP2;ratioP2;P2;SDS_P1;SDS_P2;PMS_P1;PMS_P2;Temp;Humidity;BMP_temperature;BMP_pressure;BME280_temperature;BME280_humidity;BME280_pressure;Samples;Min_cycle;Max_cycle;Signal;HPM_P1;HPM_P2
2021/12/28 00:03:52;;;;;;;25.03;15.57;;;8.20;99.90;;;;;;20996978;28;20210;-63
2021/12/28 00:14:00;;;;;;;27.63;17.03;;;8.20;99.90;;;;;;20996441;28;20294;-62
2021/12/28 00:24:05;;;;;;;25.87;16.33;;;8.20;99.90;;;;;;20996485;28;20756;-62
2021/12/28 00:34:07;;;;;;;24.17;14.37;;;8.20;99.90;;;;;;20995250;28;20245;-66
2021/12/28 00:44:08;;;;;;;24.30;14.47;;;8.20;99.90;;;;;;20995091;28;20674;-61
2021/12/28 00:54:10;;;;;;;19.93;12.73;;;8.20;99.90;;;;;;20993940;28;20261;-61
2021/12/28 01:04:12;;;;;;;20.43;13.03;;;8.20;99.90;;;;;;21011013;28;20620;-64
2021/12/28 01:14:14;;;;;;;22.00;14.77;;;8.20;99.90;;;;;;21010195;28;20238;-65
2021/12/28 01:24:16;;;;;;;17.70;12.40;;;8.20;99.90;;;;;;21008620;28;20207;-63
2021/12/28 01:34:18;;;;;;;21.87;13.23;;;8.30;99.90;;;;;;21008285;28;20249;-67
2021/12/28 01:44:20;;;;;;;19.40;13.07;;;8.30;99.90;;;;;;21007718;28;20259;-65
2021/12/28 01:54:22;;;;;;;19.57;13.43;;;8.20;99.90;;;;;;21007393;28;20303;-61
2021/12/28 02:04:27;;;;;;;19.00;12.30;;;8.30;99.90;;;;;;21006219;28;20660;-61
2021/12/28 02:14:29;;;;;;;17.17;11.13;;;8.40;99.90;;;;;;21005204;28;20728;-62
2021/12/28 02:24:30;;;;;;;18.47;10.27;;;8.40;99.90;;;;;;21005182;28;20206;-64
2021/12/28 02:34:32;;;;;;;10.23;5.80;;;8.50;99.90;;;;;;21003801;28;20288;-61
2021/12/28 02:44:34;;;;;;;9.17;4.83;;;8.60;99.90;;;;;;21003078;28;20273;-62
2021/12/28 02:54:40;;;;;;;10.57;6.30;;;8.60;99.90;;;;;;21002423;28;20235;-61
2021/12/28 03:04:42;;;;;;;13.13;6.77;;;8.60;99.90;;;;;;21001538;28;20261;-65
2021/12/28 03:14:48;;;;;;;9.83;5.20;;;8.60;99.90;;;;;;21000588;28;20284;-65
2021/12/28 03:24:50;;;;;;;8.00;5.17;;;8.70;99.90;;;;;;20999660;28;20625;-63
2021/12/28 03:34:51;;;;;;;10.93;5.77;;;8.60;99.90;;;;;;20998667;28;20239;-67
2021/12/28 03:44:53;;;;;;;10.73;4.87;;;8.60;99.90;;;;;;20998239;28;20207;-63
2021/12/28 03:54:55;;;;;;;8.53;4.17;;;8.50;99.90;;;;;;20997838;28;20230;-62
2021/12/28 04:04:56;;;;;;;13.13;7.50;;;8.50;99.90;;;;;;20996874;28;20211;-62
2021/12/28 04:14:58;;;;;;;22.20;12.63;;;8.30;99.90;;;;;;20996391;28;20280;-63
2021/12/28 04:25:00;;;;;;;20.93;13.40;;;8.20;99.90;;;;;;20996299;28;20601;-62
2021/12/28 04:35:03;;;;;;;23.13;14.17;;;8.00;99.90;;;;;;20995037;28;20309;-64
2021/12/28 04:45:07;;;;;;;29.63;14.27;;;8.00;99.90;;;;;;20995001;28;20208;-67
2021/12/28 04:55:14;;;;;;;22.77;13.00;;;8.00;99.90;;;;;;20994975;28;20263;-63
2021/12/28 05:13:49;;;;;;;24.07;13.03;;;7.80;99.90;;;;;;21068338;28;20577;-65
2021/12/28 05:23:51;;;;;;;26.07;12.63;;;7.80;99.90;;;;;;21067740;28;20201;-65
2021/12/28 05:33:54;;;;;;;11.53;3.90;;;7.90;99.90;;;;;;21066619;28;20639;-61
2021/12/28 05:43:55;;;;;;;7.97;2.90;;;8.00;99.90;;;;;;21065769;28;20208;-62
2021/12/28 05:53:57;;;;;;;7.90;3.13;;;8.20;99.90;;;;;;21065361;28;20541;-65
2021/12/28 06:03:59;;;;;;;7.15;3.30;;;8.30;99.90;;;;;;21061081;28;20433;-61
2021/12/28 06:14:02;;;;;;;5.80;3.37;;;8.50;99.90;;;;;;21063561;28;20724;-66
2021/12/28 06:24:07;;;;;;;10.60;3.60;;;8.50;99.90;;;;;;21013334;28;20217;-61
2021/12/28 06:34:09;;;;;;;6.53;3.80;;;8.40;99.90;;;;;;21004966;28;20214;-63
2021/12/28 06:44:11;;;;;;;7.60;3.73;;;8.30;99.90;;;;;;21005406;28;20260;-62
2021/12/28 06:54:13;;;;;;;11.07;4.40;;;8.30;99.90;;;;;;21004829;28;20222;-64
2021/12/28 07:04:14;;;;;;;7.50;3.83;;;8.40;99.90;;;;;;21002386;28;20311;-66
2021/12/28 07:14:16;;;;;;;7.70;4.43;;;8.40;99.90;;;;;;21002943;28;20214;-66
2021/12/28 07:24:19;;;;;;;7.97;4.47;;;8.40;99.90;;;;;;21001925;28;20322;-62
2021/12/28 07:34:21;;;;;;;11.73;4.00;;;8.40;99.90;;;;;;21000131;28;20268;-62
2021/12/28 07:44:24;;;;;;;10.57;3.70;;;8.40;99.90;;;;;;21000269;28;20291;-61
2021/12/28 07:54:26;;;;;;;9.83;4.30;;;8.40;99.90;;;;;;20999712;28;20264;-63
2021/12/28 08:04:28;;;;;;;10.93;4.90;;;8.50;99.90;;;;;;20998311;28;20814;-62
2021/12/28 08:14:29;;;;;;;9.20;5.20;;;8.40;99.90;;;;;;20997869;28;20203;-67
2021/12/28 08:24:33;;;;;;;11.23;5.40;;;8.50;99.90;;;;;;20997425;28;20241;-65
2021/12/28 08:34:35;;;;;;;10.10;4.43;;;8.50;99.90;;;;;;20996767;28;20208;-65
2021/12/28 08:44:37;;;;;;;11.93;5.10;;;8.60;99.90;;;;;;20995716;28;20233;-61
2021/12/28 08:54:38;;;;;;;12.20;5.40;;;8.60;99.90;;;;;;20996217;28;20233;-62
2021/12/28 09:04:43;;;;;;;11.67;6.10;;;8.70;99.90;;;;;;20994579;28;20235;-65
2021/12/28 09:14:45;;;;;;;11.23;5.70;;;8.80;99.90;;;;;;20994902;28;20203;-66
2021/12/28 09:24:46;;;;;;;16.37;5.80;;;8.90;99.90;;;;;;20995154;28;20744;-63
2021/12/28 09:34:53;;;;;;;11.07;5.27;;;8.90;99.90;;;;;;20994028;28;20222;-62
2021/12/28 09:44:55;;;;;;;6.63;4.67;;;8.90;99.90;;;;;;20993499;28;20234;-62
2021/12/28 09:54:57;;;;;;;9.10;4.87;;;9.00;99.90;;;;;;21000320;28;20210;-62
2021/12/28 10:05:09;;;;;;;7.17;4.43;;;9.00;99.90;;;;;;21007929;28;20732;-64
2021/12/28 10:15:15;;;;;;;6.20;4.33;;;9.40;99.90;;;;;;21007574;28;20211;-67
2021/12/28 10:25:20;;;;;;;8.93;5.17;;;9.50;99.90;;;;;;21007123;28;20235;-67
2021/12/28 10:35:25;;;;;;;4.90;3.43;;;9.60;99.90;;;;;;21006064;28;20212;-63
2021/12/28 10:45:44;;;;;;;5.93;3.60;;;9.70;99.90;;;;;;21005104;28;20235;-64
2021/12/28 10:55:51;;;;;;;6.07;3.27;;;9.80;99.90;;;;;;21004874;28;20298;-63
2021/12/28 11:05:55;;;;;;;3.97;1.93;;;9.90;99.90;;;;;;21003438;28;20780;-62
2021/12/28 11:15:58;;;;;;;1.20;1.00;;;10.10;99.90;;;;;;21002902;28;20212;-63
2021/12/28 11:26:04;;;;;;;1.87;1.20;;;10.20;99.90;;;;;;21002112;28;20259;-63
2021/12/28 11:36:06;;;;;;;1.23;1.10;;;10.40;99.90;;;;;;21001581;28;20217;-63
2021/12/28 11:46:08;;;;;;;1.57;1.00;;;10.50;99.90;;;;;;21000109;28;20239;-68
2021/12/28 11:56:14;;;;;;;1.50;1.17;;;10.70;99.90;;;;;;20999578;28;20209;-66
2021/12/28 12:06:16;;;;;;;2.30;1.80;;;10.70;99.90;;;;;;20998661;28;20253;-68
2021/12/28 12:16:18;;;;;;;2.33;1.50;;;10.80;99.90;;;;;;20997520;28;20238;-64
2021/12/28 12:26:33;;;;;;;2.70;1.10;;;10.80;99.90;;;;;;20997608;28;20236;-63
2021/12/28 12:36:41;;;;;;;1.30;1.20;;;11.00;99.90;;;;;;20997195;28;20249;-65
2021/12/28 12:46:46;;;;;;;1.33;1.23;;;11.10;99.90;;;;;;20995811;28;20320;-66
2021/12/28 12:56:51;;;;;;;1.40;1.30;;;11.10;99.90;;;;;;20995881;28;20209;-67
2021/12/28 13:07:23;;;;;;;1.50;1.30;;;11.10;99.90;;;;;;20995510;28;20245;-65
2021/12/28 13:17:27;;;;;;;1.50;1.40;;;11.10;99.90;;;;;;20992119;28;20273;-63
2021/12/28 13:27:29;;;;;;;2.83;1.63;;;11.20;99.90;;;;;;20997628;28;20238;-63
2021/12/28 13:37:30;;;;;;;2.53;1.53;;;11.70;99.90;;;;;;21010926;28;20567;-64
2021/12/28 13:47:35;;;;;;;1.27;1.10;;;11.20;99.90;;;;;;21009334;28;20277;-68
2021/12/28 13:57:37;;;;;;;2.00;1.40;;;11.30;99.90;;;;;;21008721;28;20240;-67
2021/12/28 14:07:39;;;;;;;1.53;1.20;;;11.30;99.90;;;;;;21008167;28;20294;-69
2021/12/28 14:17:41;;;;;;;1.30;1.20;;;11.30;99.90;;;;;;21006759;28;20608;-68
2021/12/28 14:27:54;;;;;;;1.90;1.50;;;11.30;99.90;;;;;;21005983;28;20234;-67
2021/12/28 14:37:56;;;;;;;2.17;1.40;;;11.30;99.90;;;;;;21005808;28;20201;-65
2021/12/28 14:47:57;;;;;;;3.10;1.43;;;11.30;99.90;;;;;;21004789;28;20244;-70
2021/12/28 14:58:08;;;;;;;2.40;1.50;;;11.30;99.90;;;;;;21003745;28;20203;-66
2021/12/28 15:08:14;;;;;;;1.90;1.10;;;11.30;99.90;;;;;;21002053;28;20237;-70
2021/12/28 15:18:18;;;;;;;2.87;1.27;;;11.30;99.90;;;;;;21002780;28;20210;-71
2021/12/28 15:28:20;;;;;;;2.70;1.00;;;11.30;99.90;;;;;;21001500;28;20240;-69
2021/12/28 15:38:22;;;;;;;6.27;1.87;;;10.90;99.90;;;;;;21001044;28;20249;-65
2021/12/28 15:48:25;;;;;;;3.10;1.00;;;10.40;99.90;;;;;;20999233;28;20252;-68
2021/12/28 15:58:28;;;;;;;4.97;1.77;;;10.20;99.90;;;;;;20998961;28;20235;-66
2021/12/28 16:08:29;;;;;;;4.40;1.73;;;10.20;99.90;;;;;;20998597;28;20244;-67
2021/12/28 16:18:32;;;;;;;6.87;2.17;;;10.10;98.80;;;;;;20996848;28;20266;-69
2021/12/28 16:28:33;;;;;;;6.20;2.10;;;10.00;98.50;;;;;;20995460;28;20238;-74
2021/12/28 16:38:38;;;;;;;5.90;1.73;;;10.10;98.80;;;;;;20995594;28;20342;-71
2021/12/28 16:48:40;;;;;;;6.67;1.70;;;10.00;98.60;;;;;;20956274;28;20289;-71
2021/12/28 16:58:42;;;;;;;6.50;1.53;;;9.90;99.00;;;;;;20994765;28;20261;-71
2021/12/28 17:08:44;;;;;;;3.43;1.70;;;10.00;99.00;;;;;;20923392;28;20254;-70
2021/12/28 17:18:46;;;;;;;5.87;1.90;;;10.00;98.70;;;;;;20984079;28;20242;-71
2021/12/28 17:28:49;;;;;;;5.40;2.00;;;10.00;98.90;;;;;;20993869;28;20233;-72
2021/12/28 17:38:51;;;;;;;6.63;2.47;;;10.00;99.00;;;;;;20994107;28;20208;-71
2021/12/28 17:48:53;;;;;;;8.07;2.50;;;9.80;99.20;;;;;;20966163;28;20532;-69
2021/12/28 17:58:55;;;;;;;6.63;1.90;;;9.80;99.20;;;;;;20974200;28;20215;-71
2021/12/28 18:08:57;;;;;;;9.47;2.20;;;9.80;99.50;;;;;;21040731;28;20289;-69
2021/12/28 18:18:59;;;;;;;7.87;2.30;;;9.70;99.40;;;;;;21053454;28;20205;-66
2021/12/28 18:29:08;;;;;;;9.17;2.57;;;9.70;99.60;;;;;;21006247;28;20289;-66
2021/12/28 18:39:09;;;;;;;5.80;2.00;;;9.70;99.60;;;;;;21003643;28;20209;-70
2021/12/28 18:49:11;;;;;;;9.07;2.20;;;9.70;99.90;;;;;;20923527;28;20717;-67
2021/12/28 18:59:14;;;;;;;5.63;1.87;;;9.70;99.90;;;;;;20919740;28;20200;-69
2021/12/28 19:09:20;;;;;;;7.73;2.37;;;9.70;99.90;;;;;;20920426;28;20246;-70
2021/12/28 19:19:23;;;;;;;9.60;2.07;;;9.60;99.60;;;;;;20918946;28;20317;-67
2021/12/28 19:29:27;;;;;;;9.83;2.30;;;9.60;99.60;;;;;;20924856;28;20847;-70
2021/12/28 19:39:29;;;;;;;9.20;2.47;;;9.60;99.90;;;;;;20992247;28;20204;-67
2021/12/28 19:49:35;;;;;;;10.67;2.53;;;9.50;99.60;;;;;;20915197;28;20698;-70
2021/12/28 19:59:37;;;;;;;11.03;2.93;;;9.50;99.70;;;;;;20960109;28;20213;-68
2021/12/28 20:09:39;;;;;;;10.33;2.50;;;9.60;99.90;;;;;;20996756;28;20243;-71
2021/12/28 20:19:41;;;;;;;12.70;2.90;;;9.60;99.90;;;;;;20992731;28;20211;-71
2021/12/28 20:29:43;;;;;;;13.57;3.07;;;9.60;99.90;;;;;;20995953;28;20267;-68
2021/12/28 20:39:45;;;;;;;14.00;2.73;;;9.60;99.90;;;;;;20991533;28;20251;-70
2021/12/28 20:49:49;;;;;;;11.57;2.20;;;9.70;99.90;;;;;;20973631;28;20284;-72
2021/12/28 20:59:52;;;;;;;12.37;2.30;;;9.70;99.90;;;;;;20994559;28;20208;-71
2021/12/28 21:09:53;;;;;;;8.73;2.40;;;9.70;99.90;;;;;;20995056;28;20239;-64
2021/12/28 21:19:55;;;;;;;9.97;2.43;;;9.70;99.90;;;;;;21075703;28;20212;-68
2021/12/28 21:29:59;;;;;;;9.50;1.90;;;9.70;99.90;;;;;;21076139;28;20234;-68
2021/12/28 21:40:02;;;;;;;9.00;2.03;;;9.70;99.90;;;;;;21075922;28;20207;-66
2021/12/28 21:50:05;;;;;;;7.70;2.50;;;9.70;99.90;;;;;;21080777;28;20231;-71
2021/12/28 22:00:13;;;;;;;9.30;2.40;;;9.70;99.90;;;;;;21090781;28;20212;-71
2021/12/28 22:10:14;;;;;;;6.97;1.70;;;9.60;99.90;;;;;;21089832;28;20300;-64
2021/12/28 22:20:16;;;;;;;6.40;1.97;;;9.70;99.90;;;;;;21089316;28;20209;-66
2021/12/28 22:30:19;;;;;;;6.87;1.90;;;9.60;99.90;;;;;;21088239;28;20235;-71
2021/12/28 22:40:23;;;;;;;9.23;2.10;;;9.70;99.90;;;;;;21089659;28;20608;-63
2021/12/28 22:50:25;;;;;;;9.00;2.30;;;9.70;99.90;;;;;;21089611;28;20334;-62
2021/12/28 23:00:36;;;;;;;6.67;1.87;;;9.70;99.90;;;;;;21088021;28;20206;-71
2021/12/28 23:10:40;;;;;;;8.20;2.20;;;9.70;99.90;;;;;;21071375;28;20241;-62
2021/12/28 23:20:42;;;;;;;7.50;1.83;;;9.70;99.90;;;;;;20930429;28;20574;-62
2021/12/28 23:30:45;;;;;;;8.77;2.10;;;9.70;99.90;;;;;;20917192;28;20239;-61
2021/12/28 23:40:47;;;;;;;4.23;1.53;;;9.70;99.90;;;;;;20918802;28;20206;-63
2021/12/28 23:50:49;;;;;;;3.37;1.47;;;9.70;99.90;;;;;;20918154;28;20231;-71
